createdAt,value
2017-08-28T00:00:33.474Z,63.89
2017-08-28T00:01:13.936Z,63.89
2017-08-28T00:01:54.392Z,63.69
2017-08-28T00:02:34.844Z,63.98
2017-08-28T00:03:15.300Z,63.69
2017-08-28T00:03:55.757Z,64.07
2017-08-28T00:04:36.208Z,63.69
2017-08-28T00:05:16.668Z,64.17
2017-08-28T00:05:57.136Z,64.17
2017-08-28T00:06:37.593Z,64.17
2017-08-28T00:07:18.048Z,63.98
2017-08-28T00:07:58.510Z,63.98
2017-08-28T00:08:38.972Z,63.69
2017-08-28T00:09:19.427Z,63.59
2017-08-28T00:09:59.888Z,63.59
2017-08-28T00:10:40.359Z,63.79
2017-08-28T00:11:20.888Z,63.89
2017-08-28T00:12:01.349Z,63.59
2017-08-28T00:12:41.808Z,63.79
2017-08-28T00:13:22.269Z,64.07
2017-08-28T00:14:02.727Z,63.79
2017-08-28T00:14:43.192Z,63.49
2017-08-28T00:15:23.678Z,64.07
2017-08-28T00:16:04.137Z,63.49
2017-08-28T00:16:44.597Z,63.69
2017-08-28T00:17:25.050Z,63.69
2017-08-28T00:18:05.511Z,63.69
2017-08-28T00:18:45.963Z,63.69
2017-08-28T00:19:26.420Z,63.69
2017-08-28T00:20:06.880Z,63.59
2017-08-28T00:20:47.344Z,63.69
2017-08-28T00:21:27.787Z,63.69
2017-08-28T00:22:08.240Z,63.59
2017-08-28T00:22:48.701Z,63.69
2017-08-28T00:23:29.160Z,63.69
2017-08-28T00:24:09.614Z,63.49
2017-08-28T00:24:50.072Z,63.59
2017-08-28T00:25:30.529Z,63.49
2017-08-28T00:26:10.986Z,63.69
2017-08-28T00:26:51.440Z,63.49
2017-08-28T00:27:31.895Z,63.79
2017-08-28T00:28:12.352Z,63.4
2017-08-28T00:28:52.800Z,63.59
2017-08-28T00:29:33.254Z,63.49
2017-08-28T00:30:13.720Z,63.59
2017-08-28T00:30:54.175Z,63.79
2017-08-28T00:31:34.633Z,63.59
2017-08-28T00:32:15.091Z,63.49
2017-08-28T00:32:55.547Z,63.59
2017-08-28T00:33:36.006Z,63.69
2017-08-28T00:34:16.467Z,63.59
2017-08-28T00:34:56.925Z,63.69
2017-08-28T00:35:37.382Z,63.59
2017-08-28T00:36:17.846Z,63.4
2017-08-28T00:36:58.301Z,63.49
2017-08-28T00:37:38.759Z,63.4
2017-08-28T00:38:19.213Z,63.49
2017-08-28T00:38:59.664Z,63.79
2017-08-28T00:39:40.122Z,63.59
2017-08-28T00:40:20.579Z,63.49
2017-08-28T00:41:01.073Z,63.69
2017-08-28T00:41:41.541Z,63.59
2017-08-28T00:42:21.994Z,63.59
2017-08-28T00:43:02.449Z,63.4
2017-08-28T00:43:42.902Z,63.59
2017-08-28T00:44:23.361Z,63.69
2017-08-28T00:45:03.816Z,63.59
2017-08-28T00:45:44.273Z,63.59
2017-08-28T00:46:24.731Z,63.69
2017-08-28T00:47:05.189Z,63.49
2017-08-28T00:47:45.644Z,63.79
2017-08-28T00:48:26.088Z,63.79
2017-08-28T00:50:44.029Z,63.79
2017-08-28T00:51:24.490Z,63.31
2017-08-28T00:52:04.953Z,63.4
2017-08-28T00:52:45.408Z,63.4
2017-08-28T00:53:25.866Z,63.21
2017-08-28T00:54:06.324Z,63.4
2017-08-28T00:54:46.777Z,63.21
2017-08-28T00:55:27.231Z,63.21
2017-08-28T00:56:07.690Z,63.21
2017-08-28T00:56:48.143Z,63.21
2017-08-28T00:57:28.598Z,63.21
2017-08-28T00:58:09.052Z,63.21
2017-08-28T00:58:49.501Z,63.21
2017-08-28T00:59:29.950Z,63.49
2017-08-28T01:00:10.406Z,63.4
2017-08-28T01:00:50.864Z,63.4
2017-08-28T01:01:31.410Z,63.4
2017-08-28T01:02:11.863Z,63.49
2017-08-28T01:02:52.315Z,63.4
2017-08-28T01:03:32.765Z,63.21
2017-08-28T01:04:13.218Z,63.31
2017-08-28T01:04:53.672Z,63.31
2017-08-28T01:06:46.374Z,63.49
2017-08-28T01:07:26.845Z,63.21
2017-08-28T01:08:07.296Z,63.69
2017-08-28T01:08:47.753Z,63.31
2017-08-28T01:09:28.204Z,63.69
2017-08-28T01:10:08.656Z,63.4
2017-08-28T01:10:49.113Z,63.49
2017-08-28T01:11:29.577Z,63.4
2017-08-28T01:12:10.030Z,63.4
2017-08-28T01:12:50.483Z,63.4
2017-08-28T01:13:30.933Z,63.21
2017-08-28T01:14:11.407Z,63.31
2017-08-28T01:14:51.842Z,63.01
2017-08-28T01:15:32.277Z,63.01
2017-08-28T01:16:12.722Z,63.01
2017-08-28T01:16:53.166Z,63.11
2017-08-28T01:17:33.612Z,63.21
2017-08-28T01:18:14.060Z,63.11
2017-08-28T01:18:54.530Z,63.11
2017-08-28T01:19:34.958Z,63.01
2017-08-28T01:20:15.408Z,63.21
2017-08-28T01:20:55.863Z,63.01
2017-08-28T01:21:36.321Z,63.01
2017-08-28T01:22:16.777Z,63.01
2017-08-28T01:22:57.235Z,63.31
2017-08-28T01:23:37.832Z,62.92
2017-08-28T01:24:18.217Z,63.21
2017-08-28T01:24:58.672Z,63.21
2017-08-28T01:25:39.130Z,63.21
2017-08-28T01:26:19.589Z,63.21
2017-08-28T01:27:00.044Z,63.21
2017-08-28T01:27:40.500Z,63.21
2017-08-28T01:28:21.010Z,63.21
2017-08-28T01:29:01.459Z,63.11
2017-08-28T01:29:41.909Z,63.11
2017-08-28T01:30:22.365Z,63.21
2017-08-28T01:31:02.812Z,63.11
2017-08-28T01:31:43.261Z,63.4
2017-08-28T01:32:23.716Z,63.31
2017-08-28T01:33:04.164Z,63.49
2017-08-28T01:33:44.612Z,63.4
2017-08-28T01:34:25.077Z,63.31
2017-08-28T01:35:05.601Z,63.31
2017-08-28T01:35:46.053Z,63.49
2017-08-28T01:36:26.523Z,63.21
2017-08-28T01:37:07.050Z,63.49
2017-08-28T01:37:47.503Z,63.21
2017-08-28T01:38:27.952Z,63.21
2017-08-28T01:39:08.466Z,63.4
2017-08-28T01:39:48.923Z,63.21
2017-08-28T01:40:29.518Z,63.21
2017-08-28T01:41:09.972Z,63.21
2017-08-28T01:41:50.424Z,63.4
2017-08-28T01:42:30.955Z,63.4
2017-08-28T01:43:11.417Z,62.63
2017-08-28T01:43:51.872Z,63.59
2017-08-28T01:44:32.333Z,62.63
2017-08-28T01:45:12.794Z,62.92
2017-08-28T01:45:53.245Z,63.59
2017-08-28T01:46:33.695Z,62.92
2017-08-28T01:47:14.154Z,63.01
2017-08-28T01:47:54.606Z,62.82
2017-08-28T01:48:35.069Z,63.01
2017-08-28T01:49:15.526Z,63.01
2017-08-28T01:49:55.996Z,63.01
2017-08-28T01:50:36.445Z,62.92
2017-08-28T01:51:16.903Z,62.82
2017-08-28T01:51:57.361Z,62.92
2017-08-28T01:52:37.826Z,62.82
2017-08-28T01:53:18.289Z,63.01
2017-08-28T01:53:58.769Z,62.82
2017-08-28T01:54:39.230Z,63.01
2017-08-28T01:55:19.684Z,62.82
2017-08-28T01:56:00.139Z,62.72
2017-08-28T01:56:40.619Z,63.01
2017-08-28T01:57:21.079Z,63.21
2017-08-28T01:58:01.534Z,63.11
2017-08-28T01:58:41.996Z,63.01
2017-08-28T01:59:22.444Z,63.01
2017-08-28T02:00:02.909Z,62.98
2017-08-28T02:00:43.366Z,63.11
2017-08-28T02:01:23.822Z,62.92
2017-08-28T02:02:04.291Z,62.82
2017-08-28T02:02:44.729Z,63.08
2017-08-28T02:03:25.183Z,62.82
2017-08-28T02:04:05.750Z,63.11
2017-08-28T02:04:46.195Z,62.98
2017-08-28T02:05:26.647Z,62.79
2017-08-28T02:06:07.189Z,62.72
2017-08-28T02:06:47.652Z,62.69
2017-08-28T02:07:28.104Z,63.01
2017-08-28T02:08:08.557Z,62.88
2017-08-28T02:08:49.014Z,62.88
2017-08-28T02:09:29.465Z,62.69
2017-08-28T02:10:09.920Z,62.69
2017-08-28T02:10:50.370Z,62.59
2017-08-28T02:11:30.830Z,62.69
2017-08-28T02:12:11.290Z,62.69
2017-08-28T02:12:51.749Z,62.69
2017-08-28T02:13:32.204Z,62.5
2017-08-28T02:14:12.665Z,62.5
2017-08-28T02:14:53.114Z,62.82
2017-08-28T02:15:33.567Z,62.69
2017-08-28T02:16:14.024Z,62.5
2017-08-28T02:16:54.477Z,62.59
2017-08-28T02:17:34.931Z,62.72
2017-08-28T02:18:15.386Z,62.69
2017-08-28T02:18:55.841Z,62.69
2017-08-28T02:19:36.289Z,62.79
2017-08-28T02:20:16.743Z,62.5
2017-08-28T02:20:57.203Z,62.5
2017-08-28T02:21:37.649Z,62.59
2017-08-28T02:22:18.105Z,62.69
2017-08-28T02:22:58.571Z,62.5
2017-08-28T02:23:39.031Z,62.72
2017-08-28T02:24:19.484Z,62.69
2017-08-28T02:24:59.941Z,62.4
2017-08-28T02:25:40.391Z,62.79
2017-08-28T02:26:20.849Z,62.4
2017-08-28T02:27:01.303Z,62.88
2017-08-28T02:27:41.751Z,62.4
2017-08-28T02:28:22.213Z,62.5
2017-08-28T02:29:02.663Z,62.69
2017-08-28T02:29:43.123Z,62.5
2017-08-28T02:30:23.593Z,62.4
2017-08-28T02:31:04.024Z,62.4
2017-08-28T02:31:44.485Z,62.3
2017-08-28T02:32:24.926Z,62.3
2017-08-28T02:33:05.380Z,62.59
2017-08-28T02:33:45.835Z,62.4
2017-08-28T02:34:26.415Z,62.59
2017-08-28T02:35:06.879Z,62.59
2017-08-28T02:35:47.347Z,62.59
2017-08-28T02:36:27.807Z,62.3
2017-08-28T02:37:08.251Z,62.5
2017-08-28T02:37:48.717Z,62.69
2017-08-28T02:38:29.173Z,62.79
2017-08-28T02:39:09.632Z,62.79
2017-08-28T02:39:50.080Z,62.69
2017-08-28T02:40:30.534Z,62.79
2017-08-28T02:41:10.995Z,62.69
2017-08-28T02:41:51.443Z,62.59
2017-08-28T02:42:31.898Z,62.59
2017-08-28T02:43:12.347Z,62.79
2017-08-28T02:43:52.809Z,62.59
2017-08-28T02:44:33.259Z,62.5
2017-08-28T02:45:13.716Z,62.59
2017-08-28T02:45:54.169Z,62.5
2017-08-28T02:46:34.633Z,62.5
2017-08-28T02:47:15.085Z,62.59
2017-08-28T02:47:55.541Z,62.21
2017-08-28T02:48:35.995Z,62.3
2017-08-28T02:49:16.447Z,62.4
2017-08-28T02:49:56.922Z,62.3
2017-08-28T02:50:37.358Z,62.3
2017-08-28T02:51:17.808Z,62.3
2017-08-28T02:51:58.264Z,62.21
2017-08-28T02:52:38.709Z,62.11
2017-08-28T02:53:19.166Z,62.21
2017-08-28T02:53:59.617Z,62.4
2017-08-28T02:54:40.077Z,62.3
2017-08-28T02:55:20.529Z,62.4
2017-08-28T02:56:00.982Z,62.3
2017-08-28T02:56:41.438Z,62.21
2017-08-28T02:57:21.896Z,62.59
2017-08-28T02:58:02.361Z,62.4
2017-08-28T02:58:42.820Z,62.21
2017-08-28T02:59:23.280Z,62.21
2017-08-28T03:00:03.737Z,62.3
2017-08-28T03:00:44.190Z,62.21
2017-08-28T03:01:24.644Z,62.21
2017-08-28T03:02:05.099Z,62.3
2017-08-28T03:02:45.552Z,62.21
2017-08-28T03:03:26.009Z,62.5
2017-08-28T03:04:06.458Z,62.11
2017-08-28T03:04:46.899Z,62.21
2017-08-28T03:05:27.432Z,62.11
2017-08-28T03:06:07.879Z,62.3
2017-08-28T03:06:48.333Z,62.11
2017-08-28T03:07:28.867Z,62.3
2017-08-28T03:08:09.323Z,62.21
2017-08-28T03:08:49.779Z,62.11
2017-08-28T03:09:30.234Z,62.3
2017-08-28T03:10:10.783Z,62.11
2017-08-28T03:10:51.238Z,62.3
2017-08-28T03:11:31.694Z,62.21
2017-08-28T03:12:12.145Z,62.01
2017-08-28T03:12:52.612Z,62.21
2017-08-28T03:13:33.065Z,62.3
2017-08-28T03:14:13.522Z,62.11
2017-08-28T03:14:53.987Z,62.01
2017-08-28T03:15:34.431Z,62.01
2017-08-28T03:16:14.880Z,62.3
2017-08-28T03:16:55.331Z,62.01
2017-08-28T03:17:35.791Z,62.3
2017-08-28T03:18:16.249Z,62.3
2017-08-28T03:18:56.705Z,62.21
2017-08-28T03:19:37.167Z,62.21
2017-08-28T03:20:17.625Z,62.21
2017-08-28T03:20:58.081Z,62.11
2017-08-28T03:21:38.533Z,62.11
2017-08-28T03:22:18.992Z,62.3
2017-08-28T03:22:59.472Z,61.92
2017-08-28T03:23:39.938Z,62.21
2017-08-28T03:24:20.393Z,61.92
2017-08-28T03:25:00.847Z,61.92
2017-08-28T03:25:41.309Z,62.11
2017-08-28T03:26:21.790Z,62.11
2017-08-28T03:27:02.279Z,62.11
2017-08-28T03:27:42.736Z,62.11
2017-08-28T03:28:23.197Z,62.11
2017-08-28T03:29:03.642Z,62.4
2017-08-28T03:29:44.104Z,62.11
2017-08-28T03:30:24.560Z,62.01
2017-08-28T03:31:05.008Z,62.3
2017-08-28T03:31:45.454Z,62.5
2017-08-28T03:32:25.903Z,62.01
2017-08-28T03:33:06.352Z,62.11
2017-08-28T03:33:46.810Z,62.11
2017-08-28T03:34:27.263Z,61.92
2017-08-28T03:35:07.901Z,62.21
2017-08-28T03:35:48.355Z,62.3
2017-08-28T03:36:28.814Z,62.3
2017-08-28T03:37:09.266Z,62.21
2017-08-28T03:37:49.725Z,62.11
2017-08-28T03:38:30.202Z,62.11
2017-08-28T03:39:10.660Z,62.21
2017-08-28T03:39:51.120Z,62.21
2017-08-28T03:40:31.576Z,62.59
2017-08-28T03:41:12.029Z,62.59
2017-08-28T03:41:52.485Z,62.59
2017-08-28T03:42:32.942Z,62.69
2017-08-28T03:43:13.397Z,62.79
2017-08-28T03:43:53.851Z,62.69
2017-08-28T03:44:34.309Z,62.69
2017-08-28T03:45:14.764Z,62.69
2017-08-28T03:45:55.238Z,62.79
2017-08-28T03:46:35.710Z,62.69
2017-08-28T03:47:16.155Z,62.69
2017-08-28T03:47:56.611Z,62.5
2017-08-28T03:48:37.068Z,62.69
2017-08-28T03:49:17.536Z,62.69
2017-08-28T03:49:57.995Z,62.69
2017-08-28T03:50:38.450Z,62.69
2017-08-28T03:51:18.894Z,62.59
2017-08-28T03:51:59.355Z,62.5
2017-08-28T03:52:39.809Z,62.59
2017-08-28T03:53:20.262Z,62.69
2017-08-28T03:54:00.720Z,62.4
2017-08-28T03:54:41.187Z,62.59
2017-08-28T03:55:21.638Z,62.3
2017-08-28T03:56:02.086Z,62.21
2017-08-28T03:56:42.543Z,62.4
2017-08-28T03:57:23.000Z,62.21
2017-08-28T03:58:03.462Z,62.11
2017-08-28T03:58:43.928Z,62.21
2017-08-28T04:00:56.611Z,62.11
2017-08-28T04:01:37.076Z,62.59
2017-08-28T04:02:17.537Z,62.4
2017-08-28T04:02:58.018Z,62.3
2017-08-28T04:03:38.463Z,62.3
2017-08-28T04:04:18.923Z,62.01
2017-08-28T04:04:59.375Z,62.3
2017-08-28T04:05:39.832Z,62.01
2017-08-28T04:06:20.318Z,62.3
2017-08-28T04:07:00.767Z,61.82
2017-08-28T04:07:41.265Z,62.11
2017-08-28T04:08:21.728Z,62.11
2017-08-28T04:09:02.261Z,62.11
2017-08-28T04:09:42.631Z,62.3
2017-08-28T04:10:23.077Z,61.92
2017-08-28T04:11:03.531Z,62.21
2017-08-28T04:11:43.974Z,62.01
2017-08-28T04:12:24.456Z,62.01
2017-08-28T04:13:04.907Z,62.11
2017-08-28T04:13:45.375Z,62.3
2017-08-28T04:14:25.934Z,62.11
2017-08-28T04:15:06.391Z,62.3
2017-08-28T04:15:46.847Z,62.3
2017-08-28T04:16:27.298Z,61.92
2017-08-28T04:17:07.770Z,62.11
2017-08-28T04:17:48.221Z,62.11
2017-08-28T04:18:28.671Z,62.11
2017-08-28T04:19:09.121Z,62.79
2017-08-28T04:19:49.595Z,62.4
2017-08-28T04:20:30.053Z,62.56
2017-08-28T04:21:10.515Z,62.66
2017-08-28T04:21:50.964Z,62.66
2017-08-28T04:22:31.413Z,62.95
2017-08-28T04:23:11.864Z,62.85
2017-08-28T04:23:52.319Z,62.76
2017-08-28T04:24:32.767Z,63.21
2017-08-28T04:25:13.213Z,63.02
2017-08-28T04:25:53.656Z,63.11
2017-08-28T04:26:34.110Z,63.21
2017-08-28T04:27:14.567Z,63.21
2017-08-28T04:27:55.024Z,63.02
2017-08-28T04:28:35.493Z,62.82
2017-08-28T04:29:15.937Z,63.02
2017-08-28T04:29:56.387Z,62.82
2017-08-28T04:30:36.857Z,62.82
2017-08-28T04:31:17.309Z,63.11
2017-08-28T04:31:57.764Z,63.08
2017-08-28T04:32:38.213Z,62.89
2017-08-28T04:33:18.662Z,62.79
2017-08-28T04:33:59.119Z,62.89
2017-08-28T04:34:39.574Z,62.89
2017-08-28T04:35:20.025Z,62.89
2017-08-28T04:36:00.482Z,63.18
2017-08-28T04:36:40.939Z,63.08
2017-08-28T04:37:21.387Z,63.28
2017-08-28T04:38:01.843Z,63.28
2017-08-28T04:38:42.297Z,62.7
2017-08-28T04:39:22.827Z,62.89
2017-08-28T04:40:03.282Z,62.6
2017-08-28T04:40:43.742Z,62.21
2017-08-28T04:41:24.186Z,62.15
2017-08-28T04:42:04.643Z,62.05
2017-08-28T04:42:45.101Z,62.44
2017-08-28T04:43:25.544Z,62.24
2017-08-28T04:44:05.999Z,61.95
2017-08-28T04:44:46.444Z,61.76
2017-08-28T04:45:27.000Z,61.66
2017-08-28T04:46:07.450Z,61.57
2017-08-28T04:46:47.890Z,61.57
2017-08-28T04:47:28.341Z,61.37
2017-08-28T04:48:08.800Z,61.57
2017-08-28T04:48:49.252Z,61.57
2017-08-28T04:49:29.933Z,61.18
2017-08-28T04:50:10.394Z,60.99
2017-08-28T04:50:50.848Z,61.08
2017-08-28T04:52:43.489Z,60.82
2017-08-28T04:53:23.942Z,60.82
2017-08-28T04:54:04.397Z,60.72
2017-08-28T04:54:44.845Z,60.63
2017-08-28T04:55:25.295Z,60.53
2017-08-28T04:56:05.826Z,60.72
2017-08-28T04:56:46.263Z,60.82
2017-08-28T04:57:26.721Z,60.63
2017-08-28T04:58:07.195Z,60.63
2017-08-28T04:58:47.630Z,60.63
2017-08-28T04:59:28.080Z,60.63
2017-08-28T05:00:08.520Z,60.34
2017-08-28T05:00:48.991Z,60.24
2017-08-28T05:01:29.482Z,60.24
2017-08-28T05:02:09.936Z,60.24
2017-08-28T05:02:50.391Z,60.34
2017-08-28T05:03:30.850Z,60.34
2017-08-28T05:04:11.280Z,60.14
2017-08-28T05:04:51.728Z,60.24
2017-08-28T05:05:32.182Z,60.24
2017-08-28T05:06:12.640Z,60.34
2017-08-28T05:06:53.094Z,60.24
2017-08-28T05:07:33.551Z,60.05
2017-08-28T05:08:13.999Z,59.76
2017-08-28T05:08:54.458Z,60.14
2017-08-28T05:09:34.913Z,60.05
2017-08-28T05:10:15.363Z,60.14
2017-08-28T05:10:55.825Z,60.14
2017-08-28T05:11:36.272Z,60.14
2017-08-28T05:12:16.730Z,60.14
2017-08-28T05:12:57.183Z,60.34
2017-08-28T05:13:37.645Z,60.14
2017-08-28T05:14:18.098Z,60.14
2017-08-28T05:14:58.560Z,60.14
2017-08-28T05:15:39.020Z,60.14
2017-08-28T05:16:19.472Z,60.14
2017-08-28T05:16:59.932Z,59.95
2017-08-28T05:17:40.388Z,60.14
2017-08-28T05:18:20.895Z,59.95
2017-08-28T05:19:01.351Z,60.24
2017-08-28T05:19:41.798Z,60.08
2017-08-28T05:20:22.321Z,60.17
2017-08-28T05:21:02.769Z,60.08
2017-08-28T05:21:43.231Z,60.37
2017-08-28T05:22:23.683Z,60.14
2017-08-28T05:23:04.238Z,60.27
2017-08-28T05:24:51.709Z,60.27
2017-08-28T05:25:32.170Z,60.27
2017-08-28T05:26:12.612Z,60.27
2017-08-28T05:26:53.070Z,60.27
2017-08-28T05:27:33.526Z,60.44
2017-08-28T05:28:13.991Z,60.27
2017-08-28T05:28:54.437Z,60.27
2017-08-28T05:29:34.888Z,60.17
2017-08-28T05:30:15.343Z,60.17
2017-08-28T05:30:55.792Z,60.47
2017-08-28T05:31:36.250Z,60.17
2017-08-28T05:32:16.689Z,60.27
2017-08-28T05:32:57.148Z,60.27
2017-08-28T05:33:37.600Z,60.37
2017-08-28T05:34:18.048Z,60.17
2017-08-28T05:34:58.522Z,59.89
2017-08-28T05:35:38.943Z,59.98
2017-08-28T05:36:19.400Z,60.37
2017-08-28T05:36:59.852Z,60.37
2017-08-28T05:37:40.312Z,60.27
2017-08-28T05:38:20.765Z,59.98
2017-08-28T05:39:01.216Z,60.27
2017-08-28T05:39:41.674Z,60.17
2017-08-28T05:40:22.145Z,59.98
2017-08-28T05:41:02.582Z,59.98
2017-08-28T05:41:43.039Z,60.27
2017-08-28T05:42:23.497Z,59.89
2017-08-28T05:43:03.953Z,60.08
2017-08-28T05:43:44.403Z,59.98
2017-08-28T05:44:24.859Z,60.08
2017-08-28T05:45:05.321Z,59.98
2017-08-28T05:45:45.769Z,60.08
2017-08-28T05:46:26.223Z,59.98
2017-08-28T05:47:06.731Z,60.17
2017-08-28T05:47:47.185Z,59.89
2017-08-28T05:48:27.641Z,59.89
2017-08-28T05:49:08.095Z,59.98
2017-08-28T05:49:48.556Z,59.98
2017-08-28T05:50:29.007Z,59.79
2017-08-28T05:51:09.513Z,59.89
2017-08-28T05:51:49.964Z,59.79
2017-08-28T05:52:30.422Z,59.79
2017-08-28T05:53:10.877Z,59.69
2017-08-28T05:53:51.323Z,59.69
2017-08-28T05:54:31.786Z,59.5
2017-08-28T05:55:12.233Z,60.66
2017-08-28T05:55:52.700Z,59.59
2017-08-28T05:56:33.147Z,59.5
2017-08-28T05:57:13.604Z,59.79
2017-08-28T05:57:54.054Z,59.4
2017-08-28T05:58:34.513Z,59.5
2017-08-28T05:59:14.968Z,59.89
2017-08-28T05:59:55.412Z,59.89
2017-08-28T06:00:35.875Z,59.69
2017-08-28T06:01:16.327Z,59.69
2017-08-28T06:01:56.776Z,60.59
2017-08-28T06:02:37.238Z,59.69
2017-08-28T06:03:17.702Z,59.89
2017-08-28T06:03:58.151Z,60.57
2017-08-28T06:04:38.620Z,60.11
2017-08-28T06:05:19.077Z,60.17
2017-08-28T06:05:59.525Z,60.11
2017-08-28T06:06:39.983Z,59.91
2017-08-28T06:07:20.432Z,60.3
2017-08-28T06:08:00.889Z,59.91
2017-08-28T06:08:41.340Z,60.3
2017-08-28T06:09:21.814Z,60.11
2017-08-28T06:10:02.248Z,60.01
2017-08-28T06:10:42.705Z,59.82
2017-08-28T06:11:23.173Z,59.63
2017-08-28T06:12:03.629Z,60.01
2017-08-28T06:12:44.081Z,59.91
2017-08-28T06:13:24.546Z,59.82
2017-08-28T06:14:04.997Z,59.72
2017-08-28T06:14:45.456Z,60.21
2017-08-28T06:15:25.909Z,59.63
2017-08-28T06:16:06.374Z,60.01
2017-08-28T06:16:46.825Z,59.91
2017-08-28T06:17:27.399Z,60.01
2017-08-28T06:18:07.861Z,59.91
2017-08-28T06:18:48.316Z,59.72
2017-08-28T06:19:28.775Z,60.11
2017-08-28T06:20:09.237Z,60.11
2017-08-28T06:20:49.700Z,60.01
2017-08-28T06:21:30.232Z,59.82
2017-08-28T06:22:10.685Z,60.11
2017-08-28T06:22:51.147Z,59.82
2017-08-28T06:23:31.687Z,59.91
2017-08-28T06:24:12.145Z,59.91
2017-08-28T06:24:52.593Z,59.91
2017-08-28T06:25:33.144Z,59.91
2017-08-28T06:26:13.603Z,59.82
2017-08-28T06:26:54.061Z,59.91
2017-08-28T06:27:34.550Z,59.82
2017-08-28T06:28:14.992Z,59.82
2017-08-28T06:28:55.441Z,59.82
2017-08-28T06:29:35.957Z,60.11
2017-08-28T06:30:16.395Z,59.91
2017-08-28T06:30:56.842Z,59.82
2017-08-28T06:31:37.307Z,59.91
2017-08-28T06:32:17.746Z,60.01
2017-08-28T06:32:58.199Z,60.11
2017-08-28T06:33:38.652Z,59.82
2017-08-28T06:34:19.102Z,59.82
2017-08-28T06:34:59.541Z,59.72
2017-08-28T06:35:39.999Z,59.72
2017-08-28T06:36:20.445Z,59.82
2017-08-28T06:37:00.900Z,59.72
2017-08-28T06:37:41.356Z,59.82
2017-08-28T06:38:21.800Z,59.82
2017-08-28T06:39:02.253Z,59.82
2017-08-28T06:39:42.708Z,59.82
2017-08-28T06:40:23.169Z,59.72
2017-08-28T06:41:03.628Z,59.82
2017-08-28T06:41:44.082Z,59.82
2017-08-28T06:42:24.537Z,59.91
2017-08-28T06:43:04.987Z,59.82
2017-08-28T06:43:45.439Z,59.82
2017-08-28T06:44:25.902Z,59.82
2017-08-28T06:45:06.425Z,60.01
2017-08-28T06:45:46.881Z,59.63
2017-08-28T06:46:27.338Z,59.82
2017-08-28T06:47:07.790Z,59.72
2017-08-28T06:47:48.282Z,59.72
2017-08-28T06:48:28.741Z,59.91
2017-08-28T06:49:09.196Z,59.91
2017-08-28T06:49:49.656Z,59.82
2017-08-28T06:50:30.117Z,59.82
2017-08-28T06:51:10.570Z,59.63
2017-08-28T06:51:51.020Z,59.53
2017-08-28T06:52:31.472Z,60.11
2017-08-28T06:53:11.928Z,60.11
2017-08-28T06:53:52.383Z,60.21
2017-08-28T06:54:32.842Z,59.91
2017-08-28T06:55:13.290Z,59.91
2017-08-28T06:55:53.747Z,60.01
2017-08-28T06:56:34.193Z,59.82
2017-08-28T06:57:14.647Z,59.82
2017-08-28T06:57:55.103Z,59.91
2017-08-28T06:58:35.566Z,59.72
2017-08-28T06:59:16.026Z,59.63
2017-08-28T06:59:56.486Z,59.82
2017-08-28T07:00:36.938Z,60.04
2017-08-28T07:01:17.402Z,60.24
2017-08-28T07:01:57.846Z,59.91
2017-08-28T07:02:38.299Z,60.14
2017-08-28T07:03:18.747Z,59.66
2017-08-28T07:03:59.206Z,59.84
2017-08-28T07:04:39.656Z,59.94
2017-08-28T07:05:20.103Z,59.66
2017-08-28T07:06:00.546Z,59.84
2017-08-28T07:06:40.995Z,59.56
2017-08-28T07:07:21.440Z,59.46
2017-08-28T07:08:01.906Z,59.46
2017-08-28T07:08:42.366Z,59.56
2017-08-28T07:09:22.868Z,59.07
2017-08-28T07:10:03.322Z,59.36
2017-08-28T07:10:43.774Z,59.27
2017-08-28T07:11:24.230Z,59.46
2017-08-28T07:12:04.684Z,59.27
2017-08-28T07:12:45.135Z,59.27
2017-08-28T07:13:25.581Z,59.27
2017-08-28T07:14:06.039Z,59.36
2017-08-28T07:14:46.483Z,59.36
2017-08-28T07:15:27.015Z,59.2
2017-08-28T07:16:07.477Z,59.39
2017-08-28T07:16:47.950Z,59.1
2017-08-28T07:17:28.398Z,59
2017-08-28T07:18:08.847Z,58.91
2017-08-28T07:18:49.298Z,59.1
2017-08-28T07:19:29.748Z,58.91
2017-08-28T07:20:10.197Z,58.62
2017-08-28T07:20:50.643Z,58.52
2017-08-28T07:21:31.105Z,58.52
2017-08-28T07:22:11.565Z,58.62
2017-08-28T07:22:52.023Z,59
2017-08-28T07:23:32.483Z,58.72
2017-08-28T07:24:12.942Z,58.62
2017-08-28T07:24:53.394Z,58.81
2017-08-28T07:25:33.878Z,58.81
2017-08-28T07:26:14.333Z,58.52
2017-08-28T07:26:54.794Z,58.94
2017-08-28T07:27:35.245Z,58.94
2017-08-28T07:28:15.710Z,58.42
2017-08-28T07:28:56.159Z,58.74
2017-08-28T07:29:36.694Z,58.26
2017-08-28T07:30:17.162Z,58.42
2017-08-28T07:30:57.621Z,58.52
2017-08-28T07:31:38.080Z,58.55
2017-08-28T07:32:18.535Z,58.26
2017-08-28T07:32:58.988Z,58.36
2017-08-28T07:33:39.442Z,58.36
2017-08-28T07:34:19.892Z,58.45
2017-08-28T07:35:00.345Z,58.33
2017-08-28T07:35:40.803Z,58.55
2017-08-28T07:36:21.258Z,58.36
2017-08-28T07:37:01.710Z,58.65
2017-08-28T07:37:42.170Z,58.55
2017-08-28T07:38:22.747Z,58.55
2017-08-28T07:39:03.202Z,58.36
2017-08-28T07:39:43.653Z,57.87
2017-08-28T07:40:24.099Z,58.06
2017-08-28T07:41:04.547Z,58.16
2017-08-28T07:41:44.995Z,58.06
2017-08-28T07:42:25.456Z,58.16
2017-08-28T07:43:05.935Z,58.16
2017-08-28T07:43:46.389Z,58.26
2017-08-28T07:44:26.848Z,57.87
2017-08-28T07:45:07.309Z,58.16
2017-08-28T07:45:47.769Z,57.97
2017-08-28T07:46:28.227Z,57.9
2017-08-28T07:47:08.688Z,58.06
2017-08-28T07:47:49.136Z,58.16
2017-08-28T07:48:29.591Z,57.87
2017-08-28T07:49:10.059Z,57.78
2017-08-28T07:49:50.503Z,58.06
2017-08-28T07:50:30.956Z,58.36
2017-08-28T07:51:11.409Z,58.48
2017-08-28T07:51:51.878Z,58.09
2017-08-28T07:52:32.331Z,58.09
2017-08-28T07:53:12.789Z,58
2017-08-28T07:53:53.234Z,58.09
2017-08-28T07:56:06.428Z,57.7
2017-08-28T07:56:46.641Z,57.9
2017-08-28T07:57:27.085Z,57.8
2017-08-28T07:58:07.541Z,57.61
2017-08-28T07:58:48.008Z,57.51
2017-08-28T07:59:28.600Z,57.51
2017-08-28T08:00:09.022Z,57.51
2017-08-28T08:00:49.480Z,58
2017-08-28T08:01:30.021Z,57.9
2017-08-28T08:02:10.520Z,57.9
2017-08-28T08:02:50.975Z,57.64
2017-08-28T08:03:31.425Z,57.34
2017-08-28T08:04:11.867Z,57.15
2017-08-28T08:04:52.323Z,57.15
2017-08-28T08:05:32.772Z,56.96
2017-08-28T08:06:13.221Z,57.25
2017-08-28T08:06:53.678Z,57.44
2017-08-28T08:07:34.134Z,57.44
2017-08-28T08:08:14.592Z,57.34
2017-08-28T08:08:55.045Z,57.54
2017-08-28T08:09:35.519Z,57.25
2017-08-28T08:10:16.001Z,57.25
2017-08-28T08:10:56.449Z,57.06
2017-08-28T08:11:36.908Z,57.25
2017-08-28T08:12:17.359Z,57.25
2017-08-28T08:12:58.128Z,56.76
2017-08-28T08:13:38.570Z,56.67
2017-08-28T08:14:19.020Z,56.98
2017-08-28T08:14:59.831Z,56.89
2017-08-28T08:15:40.275Z,56.79
2017-08-28T08:16:20.735Z,56.79
2017-08-28T08:17:01.209Z,56.5
2017-08-28T08:17:41.654Z,56.6
2017-08-28T08:18:22.576Z,56.6
2017-08-28T08:19:03.097Z,56.5
2017-08-28T08:19:43.683Z,56.5
2017-08-28T08:20:24.336Z,56.3
2017-08-28T08:21:04.767Z,56.6
2017-08-28T08:21:45.378Z,56.6
2017-08-28T08:22:25.830Z,56.7
2017-08-28T08:23:06.335Z,56.7
2017-08-28T08:23:46.782Z,56.6
2017-08-28T08:24:27.242Z,56.5
2017-08-28T08:25:08.233Z,56.6
2017-08-28T08:25:48.124Z,56.21
2017-08-28T08:26:28.585Z,56.4
2017-08-28T08:27:09.035Z,56.01
2017-08-28T08:27:49.489Z,56.01
2017-08-28T08:28:29.951Z,56.01
2017-08-28T08:29:10.392Z,56.3
2017-08-28T08:29:50.881Z,56.21
2017-08-28T08:30:32.018Z,55.85
2017-08-28T08:31:12.474Z,55.92
2017-08-28T08:31:52.919Z,55.85
2017-08-28T08:32:33.377Z,55.94
2017-08-28T08:33:13.841Z,55.75
2017-08-28T08:33:54.291Z,56.14
2017-08-28T08:34:34.754Z,56.24
2017-08-28T08:35:15.268Z,56.04
2017-08-28T08:35:55.709Z,55.94
2017-08-28T08:36:36.157Z,55.65
2017-08-28T08:37:16.612Z,55.55
2017-08-28T08:37:57.070Z,55.75
2017-08-28T08:38:37.738Z,56.04
2017-08-28T08:39:17.972Z,55.55
2017-08-28T08:39:58.433Z,55.36
2017-08-28T08:40:39.277Z,55.55
2017-08-28T08:41:19.385Z,55.55
2017-08-28T08:41:59.828Z,55.85
2017-08-28T08:42:40.428Z,55.55
2017-08-28T08:43:20.879Z,55.36
2017-08-28T08:44:01.334Z,55.75
2017-08-28T08:44:41.793Z,55.39
2017-08-28T08:45:22.255Z,55.36
2017-08-28T08:46:03.058Z,55.39
2017-08-28T08:46:43.514Z,55
2017-08-28T08:47:23.978Z,55.19
2017-08-28T08:48:04.469Z,55.1
2017-08-28T08:48:44.896Z,55.19
2017-08-28T08:49:25.354Z,55.19
2017-08-28T08:50:05.821Z,55.29
2017-08-28T08:50:46.276Z,55.19
2017-08-28T08:51:26.821Z,55.39
2017-08-28T08:52:07.276Z,55.29